Ponciano Arriaga International Airport
MMSP : now visible

Airfield :











YOU CAN JOIN US ON...

 
LOGIN :

Register | Disclaimer

   EN    FR    IT 

 









Legend :    VFR   Marginal VFR   IFR   Intensive IFR   Very Intensive IFR
Visi :
Ceiling :
>= 8 km
>= 3000ft
5 to 8 km
1000 to 3000 ft
1500m to 5 km
500 to 1000 ft
800 to 1500m
200 to 500 ft
< 800m
< 200 ft
Symbols :   Thunderstorms  Fog  Heavy snow  Heavy precipitations  Wind > 20 kt






- Airport Elevation : 6035 ft
- IATA code : SLP


MMSP - Ponciano Arriaga International

CURRENT METAR :
  • 272343Z 22005KT 15SM SKC 22/M07 A3009 RMK SLP097 57007 967

EXPIRED METARs :
  • 272244Z 24006G16KT 15SM SKC 23/M06 A3010
  • 272141Z 22008KT 15SM SKC 23/M04 A3010 RMK ISOL CU

TAF TAF MMSP
Valid from the 28 at 00:00 until the 29 at 06:00 UTC


272327Z 2800/2906 24012KT P6SM SKC TX24/2821Z TN05/2813Z
BECMG 2802/2803 00000KT
FM281000 00000KT 6SM HZ SCT020
TEMPO 2811/2815 3SM BR HZ
FM281800 30008KT P6SM SCT025
BECMG 2902/2903 10006KT SCT020



MET'MAP, your aeronautical weather chart ! - Copyright ORBIFLY December 2007 - Disclaimer

ORBIFLY MET'MAP TEAM :

Programming & Development : Alexandra Zaïnal
Concept & original design : Baudouin d'Aumeries
Assistance for programming : Marc-Olivier Méhu
Technical & hardware support : Manuel Goepfert

Contact : metmap@orbifly.com




SOURCES & CREDITS :

   NOAA       Earth
Advisory